Time;durP1;ratioP1;P1;durP2;ratioP2;P2;SDS_P1;SDS_P2;PMS_P1;PMS_P2;Temp;Humidity;BMP_temperature;BMP_pressure;BME280_temperature;BME280_humidity;BME280_pressure;Samples;Min_cycle;Max_cycle;Signal;HPM_P1;HPM_P2
2023/01/18 00:00:38;;;;;;;9.90;4.90;;;-0.40;99.90;;;;;;5069677;28;20501;-78
2023/01/18 00:03:07;;;;;;;11.18;5.38;;;-0.40;99.90;;;;;;5069505;28;20178;-77
2023/01/18 00:05:33;;;;;;;13.30;4.82;;;-0.40;99.90;;;;;;5066932;28;20029;-76
2023/01/18 00:07:59;;;;;;;11.82;4.35;;;-0.30;99.90;;;;;;5068927;28;20028;-79
2023/01/18 00:10:26;;;;;;;8.75;4.28;;;-0.30;99.90;;;;;;5068348;28;20123;-79
2023/01/18 00:12:52;;;;;;;8.32;4.40;;;-0.30;99.90;;;;;;5065643;28;20496;-77
2023/01/18 00:15:18;;;;;;;7.20;3.35;;;-0.30;99.90;;;;;;5049532;28;20473;-78
2023/01/18 00:17:46;;;;;;;6.43;2.85;;;-0.20;99.90;;;;;;5051175;28;20094;-78
2023/01/18 00:20:13;;;;;;;5.85;3.40;;;-0.20;99.90;;;;;;5063239;28;20029;-77
2023/01/18 00:22:39;;;;;;;3.95;2.60;;;-0.20;99.90;;;;;;5051460;28;20085;-78
2023/01/18 00:25:05;;;;;;;5.22;2.60;;;-0.20;99.90;;;;;;5041080;28;20472;-77
2023/01/18 00:27:31;;;;;;;5.00;2.83;;;-0.10;99.90;;;;;;5015886;28;20037;-77
2023/01/18 00:29:58;;;;;;;4.45;2.47;;;-0.10;99.90;;;;;;5067144;28;20033;-79
2023/01/18 00:32:24;;;;;;;3.97;2.40;;;-0.10;99.90;;;;;;5050304;28;20036;-77
2023/01/18 00:34:50;;;;;;;5.47;2.67;;;-0.10;99.90;;;;;;5046011;28;20040;-77
2023/01/18 00:37:16;;;;;;;4.10;2.58;;;-0.10;99.90;;;;;;5052410;28;20068;-77
2023/01/18 00:39:42;;;;;;;3.83;2.25;;;-0.10;99.90;;;;;;5043103;28;20028;-78
2023/01/18 00:44:53;;;;;;;3.38;2.25;;;-0.10;99.90;;;;;;5064984;28;20066;-76
2023/01/18 00:47:18;;;;;;;4.28;2.38;;;0.00;99.90;;;;;;5071719;28;20025;-78
2023/01/18 00:49:45;;;;;;;2.67;1.92;;;0.00;99.90;;;;;;5055384;28;20029;-78
2023/01/18 00:52:10;;;;;;;5.18;2.60;;;0.00;99.90;;;;;;5052920;28;20037;-77
2023/01/18 00:54:36;;;;;;;5.15;2.33;;;0.00;99.90;;;;;;5030476;28;20108;-78
2023/01/18 00:57:02;;;;;;;3.72;2.20;;;0.00;99.90;;;;;;5069426;28;20036;-78
2023/01/18 00:59:28;;;;;;;4.93;3.00;;;0.00;99.90;;;;;;5070010;28;20028;-77
2023/01/18 01:02:13;;;;;;;4.25;2.70;;;0.00;99.90;;;;;;5068863;28;20148;-77
2023/01/18 01:07:24;;;;;;;5.50;2.40;;;0.00;99.90;;;;;;5071135;28;20048;-78
2023/01/18 01:09:50;;;;;;;4.97;2.20;;;0.00;99.90;;;;;;5058654;28;20076;-78
2023/01/18 01:26:09;;;;;;;5.05;2.85;;;0.00;99.90;;;;;;5044565;28;20431;-77
2023/01/18 01:28:43;;;;;;;5.65;2.80;;;0.00;99.90;;;;;;5077166;28;20024;-77
2023/01/18 01:31:12;;;;;;;3.60;2.40;;;0.00;99.90;;;;;;5062190;28;20480;-78
2023/01/18 01:33:39;;;;;;;3.58;2.03;;;0.00;99.90;;;;;;5082608;28;20032;-77
2023/01/18 01:36:11;;;;;;;3.22;2.42;;;0.00;99.90;;;;;;5079492;28;20033;-78
2023/01/18 01:38:37;;;;;;;4.15;2.30;;;0.00;99.90;;;;;;5070920;28;20392;-78
2023/01/18 01:41:25;;;;;;;3.47;2.30;;;0.00;99.90;;;;;;5052581;28;20064;-78
2023/01/18 01:43:52;;;;;;;3.90;2.00;;;0.00;99.90;;;;;;5041906;28;20489;-79
2023/01/18 01:46:26;;;;;;;3.38;2.40;;;0.00;99.90;;;;;;5072874;28;20648;-78
2023/01/18 01:49:14;;;;;;;3.80;2.60;;;0.00;99.90;;;;;;5070403;28;20017;-78
2023/01/18 01:51:51;;;;;;;5.35;2.40;;;0.00;99.90;;;;;;5072176;28;20033;-78
2023/01/18 01:54:22;;;;;;;4.93;2.30;;;0.10;99.90;;;;;;5070030;28;20093;-77
2023/01/18 01:56:52;;;;;;;3.67;2.22;;;0.00;99.90;;;;;;5051392;28;20082;-78
2023/01/18 01:59:18;;;;;;;3.85;2.53;;;0.00;99.90;;;;;;5049300;28;20497;-76
2023/01/18 02:01:45;;;;;;;5.20;2.60;;;0.00;99.90;;;;;;5053942;28;20040;-76
2023/01/18 02:04:12;;;;;;;4.03;2.40;;;0.00;99.90;;;;;;5066305;28;20032;-78
2023/01/18 02:06:39;;;;;;;5.72;2.70;;;0.00;99.90;;;;;;5069518;28;20636;-75
2023/01/18 02:09:10;;;;;;;3.28;2.40;;;0.00;99.90;;;;;;5062754;28;20032;-78
2023/01/18 02:11:36;;;;;;;4.00;2.67;;;0.10;99.90;;;;;;5067871;28;20040;-77
2023/01/18 02:14:06;;;;;;;4.18;2.40;;;0.00;99.90;;;;;;5048936;28;20021;-77
2023/01/18 02:16:34;;;;;;;4.20;2.33;;;0.00;99.90;;;;;;5067764;28;20121;-77
2023/01/18 02:19:06;;;;;;;4.45;2.70;;;0.10;99.90;;;;;;5061162;28;20469;-77
2023/01/18 02:21:38;;;;;;;4.63;2.35;;;0.10;99.90;;;;;;5045630;28;20369;-78
2023/01/18 02:24:25;;;;;;;4.45;2.60;;;0.10;99.90;;;;;;5063202;28;20060;-77
2023/01/18 02:27:13;;;;;;;5.43;2.95;;;0.10;99.90;;;;;;5051370;28;20033;-78
2023/01/18 02:30:00;;;;;;;5.18;3.08;;;0.10;99.90;;;;;;5057817;28;20054;-78
2023/01/18 02:33:08;;;;;;;4.60;2.78;;;0.10;99.90;;;;;;5071405;28;20028;-77
2023/01/18 02:35:50;;;;;;;4.95;2.80;;;0.10;99.90;;;;;;5065386;28;20045;-78
2023/01/18 02:38:24;;;;;;;5.35;2.67;;;0.10;99.90;;;;;;5040709;28;20036;-77
2023/01/18 02:41:07;;;;;;;4.88;2.85;;;0.10;99.90;;;;;;5071850;28;20044;-79
2023/01/18 02:46:34;;;;;;;4.05;2.25;;;0.20;99.90;;;;;;5070573;28;20040;-78
2023/01/18 02:49:10;;;;;;;3.58;2.35;;;0.10;99.90;;;;;;5054292;28;20401;-78
2023/01/18 02:51:37;;;;;;;4.82;2.30;;;0.10;99.90;;;;;;5069683;28;20105;-77
2023/01/18 02:54:08;;;;;;;3.45;2.45;;;0.10;99.90;;;;;;5069719;28;20086;-77
2023/01/18 02:56:39;;;;;;;3.75;2.80;;;0.20;99.90;;;;;;5072366;28;20115;-77
2023/01/18 02:59:13;;;;;;;5.50;2.50;;;0.20;99.90;;;;;;5036146;28;20037;-77
2023/01/18 03:01:44;;;;;;;4.22;2.75;;;0.20;99.90;;;;;;5050793;28;20024;-77
2023/01/18 03:04:16;;;;;;;6.07;2.72;;;0.20;99.90;;;;;;5070958;28;20028;-78
2023/01/18 03:06:47;;;;;;;5.03;2.63;;;0.20;99.90;;;;;;5081107;28;20036;-77
2023/01/18 03:09:17;;;;;;;6.63;3.20;;;0.20;99.90;;;;;;5071234;28;20067;-78
2023/01/18 03:11:43;;;;;;;7.68;3.00;;;0.20;99.90;;;;;;5067507;28;20039;-77
2023/01/18 03:14:26;;;;;;;4.93;2.80;;;0.20;99.90;;;;;;5071600;28;20099;-77
2023/01/18 03:17:09;;;;;;;5.60;3.10;;;0.20;99.90;;;;;;5065320;28;20031;-77
2023/01/18 03:25:19;;;;;;;4.72;3.03;;;0.20;99.90;;;;;;5038450;28;20043;-78
2023/01/18 03:36:19;;;;;;;8.40;3.63;;;0.10;99.90;;;;;;5056681;28;20037;-79
2023/01/18 03:38:51;;;;;;;6.13;3.13;;;0.10;99.90;;;;;;5075580;28;20059;-78
2023/01/18 03:41:19;;;;;;;4.88;2.90;;;0.10;99.90;;;;;;5072000;28;20477;-78
2023/01/18 03:43:47;;;;;;;4.95;3.00;;;0.10;99.90;;;;;;5071485;28;20115;-78
2023/01/18 03:46:17;;;;;;;7.75;3.53;;;0.10;99.90;;;;;;5053490;28;20033;-78
2023/01/18 03:48:43;;;;;;;6.43;3.55;;;0.10;99.90;;;;;;5064712;28;20033;-77
2023/01/18 03:51:22;;;;;;;5.18;2.97;;;0.10;99.90;;;;;;5040877;28;20028;-78
2023/01/18 03:53:59;;;;;;;5.47;3.15;;;0.10;99.90;;;;;;5071683;28;20404;-77
2023/01/18 03:56:32;;;;;;;4.68;2.90;;;0.10;99.90;;;;;;5072186;28;20081;-77
2023/01/18 03:59:02;;;;;;;5.85;2.97;;;0.10;99.90;;;;;;5070932;28;20039;-78
2023/01/18 04:01:28;;;;;;;5.70;3.38;;;0.10;99.90;;;;;;5050032;28;20016;-78
2023/01/18 04:03:54;;;;;;;6.95;2.90;;;0.10;99.90;;;;;;5065567;28;20033;-79
2023/01/18 04:06:22;;;;;;;4.30;2.67;;;0.10;99.90;;;;;;5032051;28;20037;-78
2023/01/18 04:08:51;;;;;;;6.07;3.47;;;0.10;99.90;;;;;;5032381;28;20029;-78
2023/01/18 04:11:17;;;;;;;4.97;2.88;;;0.10;99.90;;;;;;5049993;28;20033;-78
2023/01/18 04:13:43;;;;;;;4.15;2.95;;;0.10;99.90;;;;;;5049741;28;20032;-77
2023/01/18 04:16:09;;;;;;;6.68;3.25;;;0.10;99.90;;;;;;5071805;28;20036;-78
2023/01/18 04:18:35;;;;;;;6.13;3.25;;;0.10;99.90;;;;;;5041566;28;20029;-77
2023/01/18 04:21:01;;;;;;;7.63;3.25;;;0.10;99.90;;;;;;5070310;28;20036;-77
2023/01/18 04:23:27;;;;;;;6.72;3.28;;;0.10;99.90;;;;;;5043892;28;20174;-78
2023/01/18 04:25:53;;;;;;;4.57;2.75;;;0.10;99.90;;;;;;5070034;28;20040;-78
2023/01/18 04:28:24;;;;;;;5.95;3.17;;;0.20;99.90;;;;;;5070153;28;20563;-78
2023/01/18 04:30:51;;;;;;;7.78;3.75;;;0.20;99.90;;;;;;5041005;28;20028;-77
2023/01/18 04:33:19;;;;;;;6.47;3.20;;;0.10;99.90;;;;;;5068100;28;20036;-77
2023/01/18 04:35:46;;;;;;;7.28;3.08;;;0.20;99.90;;;;;;5069652;28;20093;-77
2023/01/18 04:38:12;;;;;;;7.93;3.85;;;0.10;99.90;;;;;;5047454;28;20037;-77
2023/01/18 04:40:38;;;;;;;7.65;3.45;;;0.20;99.90;;;;;;5064899;28;20050;-77
2023/01/18 04:43:04;;;;;;;5.68;3.30;;;0.10;99.90;;;;;;5068326;28;20040;-78
2023/01/18 04:45:30;;;;;;;7.05;3.40;;;0.10;99.90;;;;;;5068707;28;20074;-78
2023/01/18 04:47:56;;;;;;;6.18;3.40;;;0.20;99.90;;;;;;5075913;28;20025;-78
2023/01/18 04:50:22;;;;;;;5.95;3.25;;;0.20;99.90;;;;;;5069091;28;20566;-78
2023/01/18 04:52:47;;;;;;;6.65;3.72;;;0.10;99.90;;;;;;5069528;28;20013;-78
2023/01/18 04:55:14;;;;;;;7.93;3.72;;;0.20;99.90;;;;;;5068845;28;20037;-78
2023/01/18 04:57:41;;;;;;;7.32;3.40;;;0.10;99.90;;;;;;5057106;28;20048;-77
2023/01/18 05:00:09;;;;;;;5.65;3.38;;;0.10;99.90;;;;;;5066243;28;20090;-78
2023/01/18 05:02:35;;;;;;;8.45;3.78;;;0.20;99.90;;;;;;5071175;28;20459;-78
2023/01/18 05:05:03;;;;;;;6.57;3.60;;;0.10;99.90;;;;;;5059096;28;20032;-78
2023/01/18 05:07:32;;;;;;;6.40;3.80;;;0.10;99.90;;;;;;5070761;28;20044;-78
2023/01/18 05:09:58;;;;;;;7.40;3.60;;;0.20;99.90;;;;;;5069148;28;20074;-77
2023/01/18 05:12:23;;;;;;;8.02;3.63;;;0.20;99.90;;;;;;5065427;28;20066;-78
2023/01/18 05:14:49;;;;;;;7.18;3.65;;;0.10;99.90;;;;;;5037665;28;20041;-78
2023/01/18 05:17:16;;;;;;;7.70;3.53;;;0.10;99.90;;;;;;5068193;28;20037;-78
2023/01/18 05:19:42;;;;;;;7.60;4.00;;;0.10;99.90;;;;;;5055978;28;20037;-79
2023/01/18 05:22:07;;;;;;;5.68;3.28;;;0.10;99.90;;;;;;5075201;28;20044;-78
2023/01/18 05:24:33;;;;;;;7.65;3.97;;;0.10;99.90;;;;;;5068751;28;20054;-78
2023/01/18 05:26:59;;;;;;;6.35;3.85;;;0.10;99.90;;;;;;5080321;28;20120;-79
2023/01/18 05:29:25;;;;;;;6.72;4.07;;;0.10;99.90;;;;;;5055714;28;20418;-77
2023/01/18 05:31:51;;;;;;;8.68;4.38;;;0.20;99.90;;;;;;5075933;28;20405;-78
2023/01/18 05:34:17;;;;;;;8.30;4.15;;;0.20;99.90;;;;;;5069056;28;20029;-78
2023/01/18 05:36:43;;;;;;;6.82;4.20;;;0.20;99.90;;;;;;5070208;28;20393;-78
2023/01/18 05:39:10;;;;;;;6.22;3.95;;;0.20;99.90;;;;;;5044455;28;20029;-79
2023/01/18 05:41:36;;;;;;;7.28;4.25;;;0.10;99.90;;;;;;5046113;28;20089;-79
2023/01/18 05:44:02;;;;;;;6.93;4.32;;;0.10;99.90;;;;;;5061503;28;20033;-78
2023/01/18 05:46:28;;;;;;;8.45;4.53;;;0.10;99.90;;;;;;5056475;28;20521;-78
2023/01/18 05:48:58;;;;;;;7.57;4.70;;;0.10;99.90;;;;;;5074220;28;20041;-78
2023/01/18 05:51:24;;;;;;;7.70;3.95;;;0.20;99.90;;;;;;5065175;28;20040;-77
2023/01/18 05:53:50;;;;;;;9.10;4.82;;;0.20;99.90;;;;;;5049871;28;20025;-79
2023/01/18 05:56:16;;;;;;;8.18;5.22;;;0.10;99.90;;;;;;5072779;28;20493;-78
2023/01/18 05:58:42;;;;;;;11.50;5.90;;;0.10;99.90;;;;;;5068209;28;20037;-78
2023/01/18 06:01:07;;;;;;;8.23;4.55;;;0.10;99.90;;;;;;5050491;28;20029;-78
2023/01/18 06:03:34;;;;;;;9.77;4.90;;;0.10;99.90;;;;;;5067329;28;20519;-78
2023/01/18 06:06:00;;;;;;;11.27;5.63;;;0.10;99.90;;;;;;5040055;28;20063;-78
2023/01/18 06:08:27;;;;;;;7.82;4.55;;;0.10;99.90;;;;;;5073026;28;20028;-78
2023/01/18 06:10:53;;;;;;;9.15;4.63;;;0.10;99.90;;;;;;5061169;28;20517;-78
2023/01/18 06:13:20;;;;;;;6.72;4.45;;;0.10;99.90;;;;;;5073584;28;20025;-78
2023/01/18 06:15:46;;;;;;;9.68;4.50;;;0.10;99.90;;;;;;5064187;28;20033;-78
2023/01/18 06:18:12;;;;;;;9.30;5.05;;;0.10;99.90;;;;;;5073385;28;20028;-79
2023/01/18 06:20:38;;;;;;;10.95;6.70;;;0.10;99.90;;;;;;5057843;28;20532;-78
2023/01/18 06:23:04;;;;;;;9.60;5.88;;;0.10;99.90;;;;;;5059017;28;20033;-79
2023/01/18 06:25:30;;;;;;;10.95;5.82;;;0.10;99.90;;;;;;5051651;28;20535;-78
2023/01/18 06:27:55;;;;;;;12.65;5.82;;;0.10;99.90;;;;;;5058206;28;20024;-79
2023/01/18 06:30:22;;;;;;;9.80;5.32;;;0.10;99.90;;;;;;5059422;28;20032;-79
2023/01/18 06:32:49;;;;;;;8.45;4.97;;;0.10;99.90;;;;;;5071770;28;20521;-78
2023/01/18 06:35:15;;;;;;;9.40;5.20;;;0.10;99.90;;;;;;5045605;28;20040;-76
2023/01/18 06:37:41;;;;;;;8.25;5.15;;;0.10;99.90;;;;;;5072006;28;20044;-77
2023/01/18 06:40:08;;;;;;;12.15;5.70;;;0.10;99.90;;;;;;5063565;28;20043;-77
2023/01/18 06:42:34;;;;;;;9.30;5.22;;;0.10;99.90;;;;;;5038077;28;20091;-77
2023/01/18 06:45:00;;;;;;;9.07;4.93;;;0.10;99.90;;;;;;5036259;28;20040;-78
2023/01/18 06:47:25;;;;;;;9.18;5.68;;;0.10;99.90;;;;;;5063229;28;20036;-77
2023/01/18 06:49:51;;;;;;;8.27;5.00;;;0.10;99.90;;;;;;5070810;28;20077;-77
2023/01/18 06:52:17;;;;;;;10.63;5.25;;;0.10;99.90;;;;;;5058158;28;20501;-78
2023/01/18 06:54:43;;;;;;;12.32;5.55;;;0.10;99.90;;;;;;5064106;28;20048;-78
2023/01/18 06:57:10;;;;;;;12.05;5.72;;;0.10;99.90;;;;;;5062442;28;20036;-77
2023/01/18 06:59:36;;;;;;;9.05;5.22;;;0.10;99.90;;;;;;5062076;28;20116;-78
2023/01/18 07:02:03;;;;;;;9.10;5.30;;;0.10;99.90;;;;;;5062452;28;20039;-78
2023/01/18 07:04:31;;;;;;;11.75;5.93;;;0.10;99.90;;;;;;5067123;28;20043;-78
2023/01/18 07:06:57;;;;;;;10.75;5.88;;;0.10;99.90;;;;;;5063258;28;20043;-78
2023/01/18 07:09:24;;;;;;;10.60;6.00;;;0.10;99.90;;;;;;5052039;28;20031;-78
2023/01/18 07:11:50;;;;;;;9.48;5.38;;;0.10;99.90;;;;;;5053727;28;20033;-78
2023/01/18 07:14:15;;;;;;;11.77;6.55;;;0.10;99.90;;;;;;5042416;28;20033;-77
2023/01/18 07:16:41;;;;;;;10.05;5.60;;;0.10;99.90;;;;;;5076019;28;20048;-78
2023/01/18 07:19:08;;;;;;;10.45;6.20;;;0.10;99.90;;;;;;5084802;28;20087;-77
2023/01/18 07:21:34;;;;;;;11.27;5.88;;;0.10;99.90;;;;;;5070840;28;20564;-78
2023/01/18 07:24:00;;;;;;;10.98;6.00;;;0.10;99.90;;;;;;5056955;28;20036;-78
2023/01/18 07:26:45;;;;;;;10.15;5.57;;;0.10;99.90;;;;;;5060371;28;20047;-77
2023/01/18 07:29:11;;;;;;;9.93;5.90;;;0.10;99.90;;;;;;5041900;28;20028;-78
2023/01/18 07:31:37;;;;;;;15.70;6.10;;;0.10;99.90;;;;;;5069503;28;20119;-77
2023/01/18 07:34:04;;;;;;;10.23;6.03;;;0.10;99.90;;;;;;5069256;28;20112;-77
2023/01/18 07:36:30;;;;;;;10.32;5.68;;;0.10;99.90;;;;;;5055278;28;20033;-77
2023/01/18 07:38:55;;;;;;;9.30;5.82;;;0.10;99.90;;;;;;5069219;28;20094;-77
2023/01/18 07:41:22;;;;;;;11.07;6.03;;;0.10;99.90;;;;;;5076596;28;20075;-77
2023/01/18 07:43:51;;;;;;;11.18;5.88;;;0.10;99.90;;;;;;5057840;28;20036;-77
2023/01/18 07:46:19;;;;;;;10.50;5.85;;;0.10;99.90;;;;;;5071096;28;20028;-77
2023/01/18 07:48:47;;;;;;;10.30;5.88;;;0.10;99.90;;;;;;5063908;28;20082;-78
2023/01/18 07:51:14;;;;;;;9.48;6.18;;;0.10;99.90;;;;;;5070807;28;20025;-78
2023/01/18 07:53:40;;;;;;;9.48;5.97;;;0.10;99.90;;;;;;5068565;28;20017;-77
2023/01/18 07:56:10;;;;;;;10.95;6.57;;;0.10;99.90;;;;;;5056331;28;20037;-77
2023/01/18 07:58:36;;;;;;;9.77;6.13;;;0.10;99.90;;;;;;5071182;28;20498;-77
2023/01/18 08:01:08;;;;;;;9.85;6.05;;;0.10;99.90;;;;;;5069208;28;20039;-77
2023/01/18 08:03:35;;;;;;;10.35;6.40;;;0.10;99.90;;;;;;5060078;28;20028;-77
2023/01/18 08:06:03;;;;;;;10.13;6.05;;;0.10;99.90;;;;;;5066271;28;20086;-78
2023/01/18 08:08:30;;;;;;;10.73;6.20;;;0.10;99.90;;;;;;5038531;28;20040;-78
2023/01/18 08:10:58;;;;;;;8.82;5.78;;;0.10;99.90;;;;;;5050480;28;20032;-78
2023/01/18 08:13:25;;;;;;;14.13;6.75;;;0.10;99.90;;;;;;5064356;28;20033;-78
2023/01/18 08:15:52;;;;;;;9.70;6.25;;;0.10;99.90;;;;;;5042635;28;20374;-79
2023/01/18 08:18:18;;;;;;;9.88;6.50;;;0.10;99.90;;;;;;5048297;28;20036;-79
2023/01/18 08:20:45;;;;;;;11.13;7.03;;;0.10;99.90;;;;;;5049706;28;20032;-78
2023/01/18 08:23:12;;;;;;;9.65;6.68;;;0.10;99.90;;;;;;5064711;28;20029;-78
2023/01/18 08:25:38;;;;;;;9.95;6.32;;;0.10;99.90;;;;;;5064132;28;20024;-78
2023/01/18 08:28:05;;;;;;;13.93;6.80;;;0.10;99.90;;;;;;5049898;28;20032;-77
2023/01/18 08:30:34;;;;;;;12.18;6.70;;;0.20;99.90;;;;;;5066419;28;20035;-76
2023/01/18 08:33:02;;;;;;;12.05;7.05;;;0.10;99.90;;;;;;5069383;28;20016;-78
2023/01/18 08:35:31;;;;;;;9.82;6.43;;;0.20;99.90;;;;;;5029986;28;20741;-78
2023/01/18 08:37:58;;;;;;;9.55;6.55;;;0.20;99.90;;;;;;5065070;28;20040;-78
2023/01/18 08:40:25;;;;;;;9.25;6.53;;;0.20;99.90;;;;;;5068935;28;20017;-78
2023/01/18 08:42:59;;;;;;;11.77;7.20;;;0.20;99.90;;;;;;5069711;28;20111;-79
2023/01/18 08:45:26;;;;;;;12.07;7.43;;;0.20;99.90;;;;;;5069255;28;20029;-77
2023/01/18 08:48:14;;;;;;;11.45;7.13;;;0.20;99.90;;;;;;5070030;28;20033;-79
2023/01/18 08:50:41;;;;;;;10.27;7.03;;;0.20;99.90;;;;;;5036536;28;20440;-77
2023/01/18 08:53:08;;;;;;;12.65;8.10;;;0.30;99.90;;;;;;5050979;28;20259;-78
2023/01/18 08:55:35;;;;;;;14.57;8.60;;;0.20;99.90;;;;;;5041630;28;20049;-77
2023/01/18 08:58:01;;;;;;;12.57;7.95;;;0.30;99.90;;;;;;5068473;28;20037;-79
2023/01/18 09:00:28;;;;;;;12.57;8.18;;;0.30;99.90;;;;;;5068937;28;20090;-79
2023/01/18 09:02:55;;;;;;;11.25;7.60;;;0.30;99.90;;;;;;5069389;28;20025;-77
2023/01/18 09:05:21;;;;;;;14.25;7.68;;;0.30;99.90;;;;;;5054055;28;20473;-78
2023/01/18 09:07:47;;;;;;;13.90;9.73;;;0.30;99.90;;;;;;5069299;28;20062;-79
2023/01/18 09:10:14;;;;;;;15.20;9.02;;;0.40;99.90;;;;;;5064092;28;20040;-76
2023/01/18 09:12:39;;;;;;;14.95;8.88;;;0.40;99.90;;;;;;5055183;28;20025;-77
2023/01/18 09:15:06;;;;;;;13.88;8.40;;;0.40;99.90;;;;;;5055879;28;20040;-78
2023/01/18 09:17:32;;;;;;;12.75;8.38;;;0.40;99.90;;;;;;5060876;28;20125;-79
2023/01/18 09:19:58;;;;;;;15.73;9.02;;;0.40;99.90;;;;;;5030591;28;20037;-78
2023/01/18 09:22:24;;;;;;;12.57;8.35;;;0.40;99.90;;;;;;5054376;28;20475;-78
2023/01/18 09:24:50;;;;;;;11.75;8.15;;;0.40;99.90;;;;;;5056882;28;20405;-78
2023/01/18 09:27:16;;;;;;;13.18;8.05;;;0.40;99.90;;;;;;5068599;28;20135;-78
2023/01/18 09:29:42;;;;;;;12.40;7.88;;;0.40;99.90;;;;;;5063669;28;20021;-76
2023/01/18 09:32:08;;;;;;;13.20;8.32;;;0.40;99.90;;;;;;5045867;28;20029;-76
2023/01/18 09:34:34;;;;;;;14.18;8.75;;;0.40;99.90;;;;;;5020996;28;20086;-78
2023/01/18 09:37:01;;;;;;;16.38;9.40;;;0.50;99.90;;;;;;5032521;28;20029;-77
2023/01/18 09:39:27;;;;;;;13.20;8.57;;;0.50;99.90;;;;;;5048222;28;20039;-77
2023/01/18 09:41:57;;;;;;;15.10;8.85;;;0.50;99.90;;;;;;5046916;28;20037;-77
2023/01/18 09:44:38;;;;;;;13.30;9.13;;;0.50;99.90;;;;;;5066459;28;20036;-76
2023/01/18 09:47:23;;;;;;;13.52;8.77;;;0.50;99.90;;;;;;5052812;28;20033;-76
2023/01/18 09:50:01;;;;;;;;;;;0.50;99.90;;;;;;5018312;28;20178;-77
2023/01/18 09:52:50;;;;;;;15.02;9.00;;;0.50;99.90;;;;;;5041776;28;19912;-77
2023/01/18 09:55:50;;;;;;;13.30;8.48;;;0.60;99.90;;;;;;5064642;28;20031;-76
2023/01/18 09:59:01;;;;;;;16.52;9.27;;;0.50;99.90;;;;;;5054950;28;20064;-77
2023/01/18 10:01:31;;;;;;;15.23;9.35;;;0.60;99.90;;;;;;5052109;28;20028;-78
2023/01/18 10:04:19;;;;;;;15.02;9.82;;;0.50;99.90;;;;;;5066813;28;20111;-78
2023/01/18 10:06:52;;;;;;;16.50;9.35;;;0.60;99.90;;;;;;5063863;28;20040;-77
2023/01/18 10:09:26;;;;;;;14.40;9.30;;;0.60;99.90;;;;;;5065361;28;20386;-77
2023/01/18 10:12:07;;;;;;;19.07;10.43;;;0.60;99.90;;;;;;5065788;28;20036;-78
2023/01/18 10:14:45;;;;;;;14.18;9.70;;;0.60;99.90;;;;;;5066785;28;20064;-78
2023/01/18 10:17:19;;;;;;;14.38;9.10;;;0.60;99.90;;;;;;5045646;28;20029;-78
2023/01/18 10:19:46;;;;;;;17.00;10.25;;;0.50;99.90;;;;;;5072871;28;20029;-78
2023/01/18 10:22:12;;;;;;;16.55;10.25;;;0.60;99.90;;;;;;5058385;28;20229;-78
2023/01/18 10:24:59;;;;;;;17.00;9.88;;;0.60;99.90;;;;;;5066892;28;20036;-77
2023/01/18 10:27:49;;;;;;;17.80;9.90;;;0.60;99.90;;;;;;5071298;28;20036;-78
2023/01/18 10:30:36;;;;;;;14.18;9.25;;;0.60;99.90;;;;;;5072878;28;20028;-77
2023/01/18 10:33:14;;;;;;;15.77;9.38;;;0.70;99.90;;;;;;5055905;28;20115;-78
2023/01/18 10:35:45;;;;;;;17.20;9.38;;;0.70;99.90;;;;;;5037917;28;20037;-78
2023/01/18 10:38:16;;;;;;;18.70;10.18;;;0.70;99.90;;;;;;5054213;28;20059;-77
2023/01/18 10:40:48;;;;;;;15.90;9.40;;;0.70;99.90;;;;;;5044710;28;20045;-78
2023/01/18 10:43:19;;;;;;;13.20;8.55;;;0.70;99.90;;;;;;5059406;28;20119;-78
2023/01/18 10:45:45;;;;;;;13.18;8.93;;;0.80;99.90;;;;;;5065095;28;20043;-78
2023/01/18 10:48:27;;;;;;;14.55;8.68;;;0.70;99.90;;;;;;5036702;28;20032;-78
2023/01/18 10:51:25;;;;;;;14.32;9.20;;;0.80;99.90;;;;;;5047502;28;20058;-78
2023/01/18 10:53:51;;;;;;;13.05;7.63;;;0.80;99.90;;;;;;5056911;28;20485;-78
2023/01/18 10:56:23;;;;;;;11.88;7.82;;;0.80;99.90;;;;;;5075149;28;20062;-78
2023/01/18 10:58:56;;;;;;;11.98;7.35;;;0.80;99.90;;;;;;5064900;28;20028;-78
2023/01/18 11:01:36;;;;;;;13.07;8.77;;;0.90;99.90;;;;;;5050885;28;20024;-78
2023/01/18 11:04:41;;;;;;;12.75;8.07;;;0.90;99.90;;;;;;5076799;28;20527;-78
2023/01/18 11:07:07;;;;;;;16.52;9.13;;;0.80;99.90;;;;;;5017171;28;20115;-78
2023/01/18 11:09:48;;;;;;;12.15;8.25;;;0.90;99.90;;;;;;5064903;28;20785;-78
2023/01/18 11:12:37;;;;;;;13.80;8.43;;;0.90;99.90;;;;;;5074354;28;20447;-78
2023/01/18 11:15:12;;;;;;;11.52;7.40;;;0.90;99.90;;;;;;5074721;28;20043;-78
2023/01/18 11:17:40;;;;;;;11.32;8.00;;;0.90;99.90;;;;;;5076282;28;20035;-77
2023/01/18 11:20:16;;;;;;;14.38;8.75;;;0.90;99.90;;;;;;5076096;28;20070;-78
2023/01/18 11:23:00;;;;;;;14.10;8.18;;;0.90;99.90;;;;;;5072765;28;20032;-78
2023/01/18 11:25:54;;;;;;;12.43;7.78;;;0.90;99.90;;;;;;5074652;28;20389;-77
2023/01/18 11:28:44;;;;;;;11.48;7.72;;;1.00;99.90;;;;;;5074866;28;20091;-78
2023/01/18 11:31:23;;;;;;;11.77;8.23;;;0.90;99.90;;;;;;5075155;28;20028;-78
2023/01/18 11:33:54;;;;;;;12.75;7.68;;;0.90;99.90;;;;;;5075215;28;20039;-78
2023/01/18 11:36:40;;;;;;;11.15;8.38;;;1.00;99.90;;;;;;5075814;28;20028;-78
2023/01/18 11:39:23;;;;;;;12.82;8.05;;;0.90;99.90;;;;;;5072747;28;20614;-78
2023/01/18 11:41:50;;;;;;;12.07;7.85;;;0.90;99.90;;;;;;5072211;28;20043;-78
2023/01/18 11:44:28;;;;;;;13.57;8.07;;;0.90;99.90;;;;;;5075458;28;20024;-78
2023/01/18 11:46:57;;;;;;;12.93;7.85;;;0.90;99.90;;;;;;5054918;28;20032;-78
2023/01/18 11:49:37;;;;;;;12.25;8.00;;;1.00;99.90;;;;;;5059108;28;20039;-78
2023/01/18 11:52:36;;;;;;;12.43;7.95;;;0.90;99.90;;;;;;5075363;28;20121;-78
2023/01/18 11:55:13;;;;;;;12.63;7.90;;;1.00;99.90;;;;;;5070319;28;20108;-77
2023/01/18 11:57:39;;;;;;;11.57;7.85;;;0.90;99.90;;;;;;5073387;28;20032;-78
2023/01/18 12:00:13;;;;;;;12.57;7.47;;;1.00;99.90;;;;;;5067592;28;20033;-78
2023/01/18 12:02:54;;;;;;;12.95;8.30;;;0.90;99.90;;;;;;5064040;28;20028;-81
2023/01/18 12:05:43;;;;;;;11.43;7.25;;;0.90;99.90;;;;;;5045220;28;20409;-78
2023/01/18 12:08:47;;;;;;;11.02;7.22;;;0.90;99.90;;;;;;5059953;28;20669;-77
2023/01/18 12:11:42;;;;;;;9.57;6.88;;;0.90;99.90;;;;;;5042470;28;20068;-77
2023/01/18 12:14:38;;;;;;;11.82;7.57;;;0.90;99.90;;;;;;5071469;28;20020;-76
2023/01/18 12:17:17;;;;;;;;;;;0.90;99.90;;;;;;5047178;28;20687;-76
2023/01/18 12:20:15;;;;;;;11.20;6.55;;;0.90;99.90;;;;;;5063602;28;19919;-76
2023/01/18 12:22:49;;;;;;;12.35;7.03;;;0.90;99.90;;;;;;5051926;28;20068;-77
2023/01/18 12:25:33;;;;;;;12.02;6.95;;;0.90;99.90;;;;;;5061873;28;20024;-77
2023/01/18 12:28:07;;;;;;;11.18;6.97;;;0.90;99.90;;;;;;5052291;28;20024;-76
2023/01/18 12:30:53;;;;;;;10.68;7.07;;;0.90;99.90;;;;;;5063866;28;20033;-76
2023/01/18 12:33:31;;;;;;;11.70;7.75;;;0.80;99.90;;;;;;5042427;28;20139;-77
2023/01/18 12:36:32;;;;;;;11.00;7.18;;;0.80;99.90;;;;;;5050759;28;20031;-77
2023/01/18 12:39:07;;;;;;;11.40;6.47;;;0.80;99.90;;;;;;5050483;28;20082;-78
2023/01/18 12:41:58;;;;;;;10.18;6.88;;;0.70;99.90;;;;;;5063030;28;20044;-77
2023/01/18 12:44:45;;;;;;;7.97;5.95;;;0.80;99.90;;;;;;5042058;28;20044;-78
2023/01/18 12:47:34;;;;;;;10.70;6.68;;;0.70;99.90;;;;;;5037934;28;20047;-78
2023/01/18 12:50:33;;;;;;;12.82;7.70;;;0.80;99.90;;;;;;5049866;28;20032;-78
2023/01/18 12:53:17;;;;;;;10.30;7.00;;;0.70;99.90;;;;;;5053228;28;20640;-78
2023/01/18 12:55:47;;;;;;;10.45;7.30;;;0.80;99.90;;;;;;5073403;28;20059;-77
2023/01/18 12:58:19;;;;;;;10.18;6.93;;;0.80;99.90;;;;;;5069830;28;20024;-78
2023/01/18 13:01:01;;;;;;;11.93;7.03;;;0.80;99.90;;;;;;5070354;28;20028;-78
2023/01/18 13:03:44;;;;;;;11.25;7.60;;;0.80;99.90;;;;;;5070451;28;20036;-78
2023/01/18 13:06:11;;;;;;;12.20;7.88;;;0.80;99.90;;;;;;5051255;28;20111;-76
2023/01/18 13:08:48;;;;;;;9.95;7.45;;;0.90;99.90;;;;;;5053961;28;20025;-78
2023/01/18 13:11:26;;;;;;;11.18;7.97;;;0.90;99.90;;;;;;5064136;28;20048;-77
2023/01/18 13:14:04;;;;;;;11.55;7.88;;;1.00;99.90;;;;;;5054998;28;20110;-79
2023/01/18 13:16:47;;;;;;;11.95;8.38;;;1.00;99.90;;;;;;5043869;28;20413;-78
2023/01/18 13:19:24;;;;;;;12.73;8.02;;;1.00;99.90;;;;;;5069437;28;20066;-77
2023/01/18 13:21:55;;;;;;;10.73;7.05;;;1.00;99.90;;;;;;5047532;28;20037;-77
2023/01/18 13:24:42;;;;;;;11.52;7.80;;;1.10;99.90;;;;;;5053840;28;20074;-77
2023/01/18 13:27:14;;;;;;;9.00;7.00;;;1.10;99.90;;;;;;5053191;28;20028;-78
2023/01/18 13:30:05;;;;;;;12.65;7.32;;;1.10;99.90;;;;;;5069764;28;20034;-77
2023/01/18 13:32:49;;;;;;;9.90;6.88;;;1.10;99.90;;;;;;5063228;28;20071;-76
2023/01/18 13:35:22;;;;;;;10.45;6.97;;;1.10;99.90;;;;;;5046100;28;20032;-79
2023/01/18 13:37:51;;;;;;;9.90;6.82;;;1.10;99.90;;;;;;5063426;28;20078;-77
2023/01/18 13:40:31;;;;;;;9.30;6.63;;;1.10;99.90;;;;;;5067335;28;20507;-78
2023/01/18 13:42:58;;;;;;;10.15;7.80;;;1.10;99.90;;;;;;5062911;28;20029;-78
2023/01/18 13:45:27;;;;;;;10.20;7.28;;;1.10;99.90;;;;;;5082832;28;20024;-78
2023/01/18 13:47:55;;;;;;;9.98;7.13;;;1.10;99.90;;;;;;5059189;28;20107;-78
2023/01/18 13:50:38;;;;;;;10.13;6.90;;;1.00;99.90;;;;;;5086848;28;20038;-78
2023/01/18 13:53:13;;;;;;;9.48;6.93;;;1.10;99.90;;;;;;5062037;28;20067;-77